23WI weather

Black River Memorial Hospital Heliport
Black River Falls, Wisconsin, United States

Public forecast

Using degrees Fahrenheit for public forecast. Weather courtesy of forecast.io.

Closest aviation weather report (METAR) to Black River Memorial Hospital Heliport

Closest report is Black River Falls Area Airport, 3.2 nm (5.9 km) S. Retrieved 2019/10/17 09:35 UTC (11 minutes ago):

KBCK 170935Z AUTO 00000KT 10SM OVC039 06/04 A3002 RMK AO2 T00560035

Closest aviation forecast (TAF) to Black River Memorial Hospital Heliport

Closest forecast is La Crosse Municipal Airport, 30.9 nm (57.1 km) SW. Retrieved 2019/10/17 06:22 UTC (3 hours ago):

TAF KLSE 170520Z 1706/1806 VRB04KT P6SM BKN040 FM170900 00000KT P6SM SCT030 FM171900 17004KT P6SM SKC